CDT,Max TemperatureF,Mean TemperatureF,Min TemperatureF,Max Dew PointF,MeanDew PointF,Min DewpointF,Max Humidity, Mean Humidity, Min Humidity, Max Sea Level PressureIn, Mean Sea Level PressureIn, Min Sea Level PressureIn, Max VisibilityMiles, Mean VisibilityMiles, Min VisibilityMiles, Max Wind SpeedMPH, Mean Wind SpeedMPH, Max Gust SpeedMPH,PrecipitationIn, CloudCover, Events, WindDirDegrees
2011-10-1,75,55,35,37,34,32,93,54,21,30.30,30.25,30.19,10,9,2,9,2,,0.00,0,,157
2011-10-2,78,61,44,37,36,34,76,42,20,30.25,30.20,30.12,10,9,1,13,6,18,0.00,0,,165
2011-10-3,86,68,51,41,39,34,62,38,20,30.16,30.13,30.08,10,6,2,17,7,25,0.04,0,,146
2011-10-4,89,76,62,45,42,41,48,33,19,30.13,30.09,30.03,10,10,5,17,11,22,0.00,0,,170
2011-10-5,84,70,57,45,40,36,59,36,18,30.09,30.04,29.96,10,10,10,23,10,29,0.00,0,,164
2011-10-6,84,72,60,50,44,37,52,40,23,29.99,29.92,29.82,10,10,10,29,14,40,0.00,2,,154
2011-10-7,82,75,68,61,54,46,56,48,41,29.95,29.90,29.85,10,10,10,29,19,41,0.00,5,,170
2011-10-8,77,70,64,63,54,48,94,57,43,30.08,30.01,29.95,10,10,7,23,14,36,0.03,5,Rain-Thunderstorm,166
2011-10-9,78,68,59,63,58,52,100,78,41,30.11,30.07,29.99,10,10,7,21,7,26,0.01,4,Rain,153
2011-10-10,71,63,55,59,54,46,100,77,41,30.07,30.02,29.94,10,9,2,9,6,,0.31,4,Rain,190
2011-10-11,77,64,50,59,52,46,100,73,34,29.96,29.86,29.74,10,10,10,21,7,26,0.00,3,,161
2011-10-12,69,62,55,61,54,46,100,77,43,29.84,29.74,29.69,10,10,4,22,8,26,0.36,4,Rain-Thunderstorm,300
2011-10-13,73,60,46,46,39,32,82,54,22,29.91,29.86,29.80,10,10,10,21,11,29,0.01,0,,298
2011-10-14,64,54,44,43,37,30,87,54,30,30.04,29.98,29.88,10,10,10,21,8,28,0.00,1,,314
2011-10-15,73,54,35,45,37,32,93,57,27,30.09,29.99,29.81,10,10,10,21,5,28,0.00,0,,199
2011-10-16,62,56,50,46,41,36,82,57,39,30.10,29.96,29.75,10,10,10,17,10,26,0.00,0,,344
2011-10-17,55,48,42,43,37,30,93,65,38,30.09,30.03,29.99,10,10,10,15,4,21,0.00,5,Rain,14
2011-10-18,53,45,37,41,33,25,87,61,33,30.12,30.07,30.03,10,10,10,26,12,33,0.00,2,,327
2011-10-19,51,42,32,30,25,18,93,63,26,30.14,30.10,30.06,10,10,10,24,11,32,0.00,0,,340
2011-10-20,53,38,24,32,27,23,93,69,38,30.11,30.07,30.03,10,10,10,10,4,,0.00,0,,308
2011-10-21,71,52,32,37,32,28,93,62,23,30.11,30.08,30.04,10,10,2,10,2,,0.00,0,,215
2011-10-22,64,52,41,45,39,36,93,63,37,30.12,30.09,30.02,10,10,10,10,2,,0.00,5,,103
2011-10-23,78,56,35,48,39,34,100,64,23,30.02,29.97,29.89,10,10,7,16,3,23,0.00,0,,263
2011-10-24,82,58,35,43,37,34,93,57,19,30.12,30.03,29.85,10,10,7,18,4,25,0.00,0,,173
2011-10-25,73,64,55,52,45,41,68,48,33,29.91,29.76,29.69,10,10,10,25,17,30,0.00,0,,228
2011-10-26,50,46,42,41,38,36,81,69,58,30.14,30.08,30.01,10,10,10,18,11,22,0.00,4,,354
2011-10-27,55,42,30,36,29,21,100,64,28,30.19,30.15,30.11,10,10,10,12,4,,0.00,0,,305
2011-10-28,59,44,30,32,27,23,87,57,29,30.23,30.18,30.16,10,10,10,18,5,25,0.00,1,,313
2011-10-29,68,50,32,32,28,27,87,55,23,30.17,30.01,29.82,10,10,10,20,5,28,0.00,0,,169
2011-10-30,60,50,39,34,29,19,81,47,22,30.09,30.01,29.85,10,10,10,25,9,32,0.00,0,,305
2011-10-31,69,48,28,32,26,21,80,51,23,30.10,30.03,29.90,10,10,7,14,3,17,0.00,0,,169